Wells Tannery, Pennsylvania
Current Conditions -  °F | °C
As of 12:53 PM on Thursday 18 Dec 2014 (Local Time) from KAOO Reporting Station
Overcast Overcast  
Wind Chill: 19°   Ceiling: 2200
Heat Index: 30°   Visibility: 10mi
Dew Point: 22°   Wind: 16mph
Humidity: 72%   Direction: 290°WNW
Pressure: 30.08"   Gusts: NA
Location:  40.09°N, 78.17°W
Report Text: KAOO 181753Z AUTO 29014KT 10SM OVC022 M01/M06 A3008 RMK AO2 SLP204 60000 T10111056 11011 21028 58011
Loading
Personal Weather Stations






























Interactive Weather Map New forecast layout! Learn more

10-Day Weather Forecast

Advertisements
Track Severe Weather on mobile